Time;durP1;ratioP1;P1;durP2;ratioP2;P2;SDS_P1;SDS_P2;PMS_P1;PMS_P2;Temp;Humidity;BMP_temperature;BMP_pressure;BME280_temperature;BME280_humidity;BME280_pressure;Samples;Min_cycle;Max_cycle;Signal;HPM_P1;HPM_P2
2021/01/10 00:00:19;;;;;;;8.43;4.20;;;3.60;81.10;;;;;;5092382;28;20478;-76
2021/01/10 00:02:45;;;;;;;11.40;4.45;;;3.60;81.10;;;;;;5093682;28;20071;-77
2021/01/10 00:05:16;;;;;;;8.52;3.88;;;3.60;81.10;;;;;;5092293;28;20059;-76
2021/01/10 00:07:42;;;;;;;9.40;4.47;;;3.60;81.10;;;;;;5092268;28;20020;-76
2021/01/10 00:10:11;;;;;;;11.25;4.65;;;3.60;81.10;;;;;;5093618;28;20468;-77
2021/01/10 00:12:37;;;;;;;12.40;5.10;;;3.60;81.10;;;;;;5093568;28;20032;-76
2021/01/10 00:15:08;;;;;;;8.93;4.75;;;3.60;81.10;;;;;;5093563;28;20030;-76
2021/01/10 00:17:36;;;;;;;10.27;4.75;;;3.60;81.10;;;;;;5091804;28;20113;-76
2021/01/10 00:20:07;;;;;;;11.63;4.78;;;3.60;81.10;;;;;;5093019;28;20039;-76
2021/01/10 00:22:33;;;;;;;11.18;5.65;;;3.60;81.10;;;;;;5092124;28;20039;-76
2021/01/10 00:24:59;;;;;;;16.13;6.80;;;3.60;81.10;;;;;;5092407;28;20383;-77
2021/01/10 00:27:26;;;;;;;12.63;5.60;;;3.60;81.10;;;;;;5092054;28;20024;-76
2021/01/10 00:29:52;;;;;;;10.55;6.20;;;3.50;81.10;;;;;;5093420;28;20028;-76
2021/01/10 00:32:17;;;;;;;10.55;6.65;;;3.50;81.20;;;;;;5091830;28;20176;-76
2021/01/10 00:34:43;;;;;;;15.50;6.68;;;3.50;81.20;;;;;;5093245;28;20063;-76
2021/01/10 00:37:18;;;;;;;9.70;6.00;;;3.40;81.30;;;;;;5091781;28;20024;-76
2021/01/10 00:39:47;;;;;;;12.27;6.10;;;3.40;81.40;;;;;;5091859;28;20024;-77
2021/01/10 00:42:14;;;;;;;14.30;6.13;;;3.30;81.40;;;;;;5091918;28;20395;-77
2021/01/10 00:44:41;;;;;;;11.18;5.60;;;3.30;81.50;;;;;;5091752;28;20032;-77
2021/01/10 00:47:07;;;;;;;11.68;5.22;;;3.30;81.60;;;;;;5091606;28;20065;-76
2021/01/10 00:49:33;;;;;;;12.45;6.30;;;3.20;81.60;;;;;;5088466;28;20036;-76
2021/01/10 00:51:59;;;;;;;13.52;6.28;;;3.20;81.70;;;;;;5091656;28;20024;-77
2021/01/10 00:54:26;;;;;;;13.73;6.25;;;3.20;81.70;;;;;;5092711;28;20024;-77
2021/01/10 00:56:52;;;;;;;8.40;5.55;;;3.10;81.70;;;;;;5091355;28;20020;-76
2021/01/10 00:59:17;;;;;;;10.05;6.18;;;3.10;81.80;;;;;;5091331;28;20020;-77
2021/01/10 01:01:43;;;;;;;12.02;6.60;;;3.10;81.90;;;;;;5092876;28;20042;-77
2021/01/10 01:04:09;;;;;;;12.60;6.00;;;3.10;81.90;;;;;;5091442;28;20032;-76
2021/01/10 01:06:34;;;;;;;10.02;5.90;;;3.10;81.90;;;;;;5092971;28;20039;-76
2021/01/10 01:09:00;;;;;;;12.98;6.75;;;3.10;81.90;;;;;;5091427;28;20028;-76
2021/01/10 01:11:30;;;;;;;11.27;6.50;;;3.10;81.90;;;;;;5091321;28;20169;-76
2021/01/10 01:13:56;;;;;;;12.55;6.90;;;3.10;81.90;;;;;;5091569;28;20028;-76
2021/01/10 01:16:22;;;;;;;10.85;6.47;;;3.10;81.90;;;;;;5092660;28;20020;-76
2021/01/10 01:18:48;;;;;;;13.63;6.68;;;3.10;81.90;;;;;;5091456;28;20056;-76
2021/01/10 01:21:15;;;;;;;10.75;6.38;;;3.00;81.80;;;;;;5093095;28;20446;-76
2021/01/10 01:23:41;;;;;;;11.95;6.80;;;3.00;81.90;;;;;;5091361;28;20027;-76
2021/01/10 01:26:06;;;;;;;11.25;6.82;;;2.90;81.90;;;;;;5091396;28;20028;-76
2021/01/10 01:28:32;;;;;;;11.60;6.65;;;2.90;82.00;;;;;;5091358;28;20399;-76
2021/01/10 01:30:58;;;;;;;14.07;6.57;;;2.90;82.10;;;;;;5092417;28;20450;-76
2021/01/10 01:33:23;;;;;;;12.77;6.75;;;2.90;82.20;;;;;;5095344;28;20076;-76
2021/01/10 01:35:49;;;;;;;11.63;7.07;;;2.80;82.10;;;;;;5095326;28;20536;-76
2021/01/10 01:38:14;;;;;;;10.80;6.68;;;2.80;82.10;;;;;;5096423;28;20024;-76
2021/01/10 01:40:40;;;;;;;14.55;7.00;;;2.80;82.20;;;;;;5095347;28;20024;-76
2021/01/10 01:43:09;;;;;;;13.93;6.90;;;2.80;82.20;;;;;;5096625;28;20036;-76
2021/01/10 01:45:35;;;;;;;17.50;7.13;;;2.80;82.10;;;;;;5095207;28;20063;-76
2021/01/10 01:48:01;;;;;;;13.45;7.25;;;2.80;82.30;;;;;;5095141;28;20429;-76
2021/01/10 01:50:27;;;;;;;14.15;7.50;;;2.80;82.30;;;;;;5096271;28;20024;-76
2021/01/10 01:52:53;;;;;;;13.00;7.38;;;2.80;82.30;;;;;;5096800;28;20030;-76
2021/01/10 01:55:18;;;;;;;15.90;7.13;;;2.70;82.40;;;;;;5095211;28;20110;-76
2021/01/10 01:57:44;;;;;;;13.85;7.47;;;2.70;82.50;;;;;;5096322;28;20048;-76
2021/01/10 02:00:10;;;;;;;11.98;6.93;;;2.70;82.60;;;;;;5096548;28;20468;-76
2021/01/10 02:02:36;;;;;;;12.13;6.88;;;2.60;82.50;;;;;;5094710;28;20023;-76
2021/01/10 02:05:11;;;;;;;12.57;7.10;;;2.70;82.60;;;;;;5096097;28;20054;-76
2021/01/10 02:08:04;;;;;;;14.15;6.95;;;2.70;82.70;;;;;;5094602;28;20032;-76
2021/01/10 02:10:35;;;;;;;14.60;8.00;;;2.70;82.70;;;;;;5094543;28;20421;-76
2021/01/10 02:13:03;;;;;;;12.68;7.22;;;2.60;82.60;;;;;;5094567;28;20050;-76
2021/01/10 02:15:33;;;;;;;13.00;8.30;;;2.60;82.60;;;;;;5095742;28;20024;-76
2021/01/10 02:18:03;;;;;;;13.50;7.78;;;2.60;82.70;;;;;;5095529;28;20116;-76
2021/01/10 02:20:33;;;;;;;14.82;8.20;;;2.60;82.70;;;;;;5094524;28;20388;-77
2021/01/10 02:23:15;;;;;;;13.75;7.72;;;2.60;82.80;;;;;;5094425;28;20028;-76
2021/01/10 02:25:43;;;;;;;14.52;8.18;;;2.60;82.80;;;;;;5095863;28;20028;-76
2021/01/10 02:28:10;;;;;;;14.30;8.25;;;2.60;82.70;;;;;;5094670;28;20032;-76
2021/01/10 02:30:39;;;;;;;12.25;8.07;;;2.70;82.60;;;;;;5094295;28;20090;-76
2021/01/10 02:33:34;;;;;;;12.52;7.60;;;2.60;82.60;;;;;;5094250;28;20020;-76
2021/01/10 02:36:06;;;;;;;15.73;8.15;;;2.60;82.70;;;;;;5090520;28;20079;-76
2021/01/10 02:38:50;;;;;;;16.58;8.45;;;2.60;82.80;;;;;;5093979;28;20144;-77
2021/01/10 02:41:28;;;;;;;15.07;7.85;;;2.60;82.80;;;;;;5093889;28;20020;-76
2021/01/10 02:44:01;;;;;;;14.43;8.45;;;2.60;82.80;;;;;;5094247;28;20077;-76
2021/01/10 02:46:28;;;;;;;13.85;8.48;;;2.60;82.80;;;;;;5094139;28;20036;-76
2021/01/10 02:48:54;;;;;;;12.88;7.50;;;2.60;82.80;;;;;;5094434;28;20048;-77
2021/01/10 02:51:20;;;;;;;12.27;7.60;;;2.60;82.80;;;;;;5093969;28;20024;-76
2021/01/10 02:53:45;;;;;;;15.27;7.82;;;2.60;82.90;;;;;;5095075;28;20035;-76
2021/01/10 02:56:11;;;;;;;13.10;7.28;;;2.60;82.80;;;;;;5095356;28;20368;-76
2021/01/10 02:58:39;;;;;;;13.85;6.93;;;2.60;82.80;;;;;;5093759;28;20027;-76
2021/01/10 03:01:08;;;;;;;11.68;7.10;;;2.60;82.80;;;;;;5093815;28;20043;-76
2021/01/10 03:03:34;;;;;;;10.05;6.72;;;2.60;82.70;;;;;;5093741;28;20089;-75
2021/01/10 03:06:01;;;;;;;15.40;7.72;;;2.60;82.70;;;;;;5094971;28;20050;-76
2021/01/10 03:08:28;;;;;;;15.98;7.60;;;2.60;82.70;;;;;;5093550;28;20051;-76
2021/01/10 03:10:54;;;;;;;14.73;8.20;;;2.60;82.70;;;;;;5093299;28;20023;-76
2021/01/10 03:13:21;;;;;;;14.63;8.82;;;2.60;82.70;;;;;;5093522;28;20404;-75
2021/01/10 03:15:46;;;;;;;16.77;8.20;;;2.60;82.70;;;;;;5093495;28;20058;-76
2021/01/10 03:18:23;;;;;;;14.18;7.90;;;2.50;82.70;;;;;;5094701;28;20106;-76
2021/01/10 03:20:49;;;;;;;14.73;8.35;;;2.50;82.70;;;;;;5090450;28;20519;-76
2021/01/10 03:23:15;;;;;;;13.23;7.38;;;2.50;82.80;;;;;;5093283;28;20024;-75
2021/01/10 03:25:41;;;;;;;11.52;7.55;;;2.40;82.80;;;;;;5093173;28;20033;-75
2021/01/10 03:28:07;;;;;;;11.63;7.30;;;2.40;82.80;;;;;;5093107;28;20028;-75
2021/01/10 03:30:33;;;;;;;14.48;7.60;;;2.50;82.90;;;;;;5094357;28;20479;-76
2021/01/10 03:32:59;;;;;;;14.65;7.75;;;2.50;83.00;;;;;;5092909;28;20016;-76
2021/01/10 03:35:25;;;;;;;15.00;7.80;;;2.50;83.00;;;;;;5094029;28;20042;-75
2021/01/10 03:37:51;;;;;;;14.10;7.88;;;2.50;82.80;;;;;;5092753;28;20020;-76
2021/01/10 03:40:17;;;;;;;15.70;7.75;;;2.50;82.80;;;;;;5094156;28;20433;-76
2021/01/10 03:42:43;;;;;;;10.95;6.97;;;2.60;82.80;;;;;;5092570;28;20051;-76
2021/01/10 03:45:10;;;;;;;15.95;8.45;;;2.60;82.80;;;;;;5092545;28;20028;-76
2021/01/10 03:47:36;;;;;;;14.40;7.55;;;2.70;82.70;;;;;;5093886;28;20421;-76
2021/01/10 03:50:04;;;;;;;13.98;8.25;;;2.70;82.60;;;;;;5093606;28;20024;-76
2021/01/10 03:52:29;;;;;;;15.80;8.23;;;2.70;82.60;;;;;;5094097;28;20119;-76
2021/01/10 03:54:55;;;;;;;14.82;8.82;;;2.70;82.60;;;;;;5093668;28;20028;-76
2021/01/10 03:57:21;;;;;;;13.88;8.50;;;2.80;82.70;;;;;;5094224;28;20024;-76
2021/01/10 03:59:46;;;;;;;13.13;8.15;;;2.70;82.60;;;;;;5092504;28;20058;-76
2021/01/10 04:02:12;;;;;;;12.48;8.10;;;2.80;82.60;;;;;;5092596;28;20020;-76
2021/01/10 04:04:37;;;;;;;12.13;7.43;;;2.80;82.70;;;;;;5092595;28;20066;-76
2021/01/10 04:07:06;;;;;;;11.75;8.32;;;2.80;82.60;;;;;;5092451;28;20078;-76
2021/01/10 04:09:31;;;;;;;12.85;7.82;;;2.80;82.60;;;;;;5093456;28;20027;-75
2021/01/10 04:11:58;;;;;;;13.13;8.00;;;2.80;82.60;;;;;;5092319;28;20379;-76
2021/01/10 04:14:23;;;;;;;15.68;8.10;;;2.80;82.60;;;;;;5093471;28;20027;-75
2021/01/10 04:16:53;;;;;;;14.63;7.72;;;2.80;82.60;;;;;;5091957;28;20036;-76
2021/01/10 04:19:19;;;;;;;12.07;7.70;;;2.80;82.60;;;;;;5093411;28;20048;-76
2021/01/10 04:21:46;;;;;;;12.40;7.97;;;2.80;82.60;;;;;;5092042;28;20074;-75
2021/01/10 04:24:11;;;;;;;17.52;8.02;;;2.80;82.70;;;;;;5092052;28;20024;-76
2021/01/10 04:26:45;;;;;;;16.23;8.63;;;2.90;82.80;;;;;;5093374;28;20031;-76
2021/01/10 04:29:10;;;;;;;;;;;2.90;82.70;;;;;;5093850;28;20072;-76
2021/01/10 04:31:36;;;;;;;12.45;8.05;;;2.90;82.50;;;;;;5091963;28;19920;-76
2021/01/10 04:34:03;;;;;;;14.27;9.05;;;2.90;82.40;;;;;;5093300;28;20390;-76
2021/01/10 04:36:29;;;;;;;14.68;7.85;;;2.90;82.40;;;;;;5091976;28;20020;-75
2021/01/10 04:38:56;;;;;;;12.10;7.88;;;2.90;82.40;;;;;;5093470;28;20482;-76
2021/01/10 04:41:23;;;;;;;17.70;7.63;;;2.90;82.50;;;;;;5093288;28;20475;-75
2021/01/10 04:43:50;;;;;;;16.02;8.18;;;2.90;82.60;;;;;;5092148;28;20383;-76
2021/01/10 04:46:17;;;;;;;13.05;7.78;;;2.90;82.60;;;;;;5091979;28;20027;-76
2021/01/10 04:48:43;;;;;;;15.02;7.50;;;2.90;82.70;;;;;;5093109;28;20024;-76
2021/01/10 04:51:13;;;;;;;15.63;7.70;;;2.90;82.70;;;;;;5091688;28;20051;-76
2021/01/10 04:53:42;;;;;;;12.43;8.02;;;2.80;82.70;;;;;;5091712;28;20392;-76
2021/01/10 04:56:10;;;;;;;15.10;7.68;;;2.80;82.70;;;;;;5091624;28;20028;-76
2021/01/10 04:58:36;;;;;;;14.63;8.23;;;2.80;82.70;;;;;;5091549;28;20032;-76
2021/01/10 05:01:03;;;;;;;15.65;7.38;;;2.80;82.70;;;;;;5091671;28;20030;-76
2021/01/10 05:03:31;;;;;;;10.13;6.93;;;2.80;82.70;;;;;;5091500;28;20028;-76
2021/01/10 05:05:57;;;;;;;12.57;7.38;;;2.80;82.70;;;;;;5094339;28;20082;-76
2021/01/10 05:08:25;;;;;;;11.80;7.28;;;2.80;82.70;;;;;;5095853;28;20052;-76
2021/01/10 05:10:50;;;;;;;14.65;7.78;;;2.80;82.70;;;;;;5095927;28;20395;-76
2021/01/10 05:13:16;;;;;;;13.75;7.78;;;2.80;82.80;;;;;;5095986;28;20119;-76
2021/01/10 05:15:43;;;;;;;15.27;8.27;;;2.80;82.80;;;;;;5095711;28;20111;-76
2021/01/10 05:18:10;;;;;;;10.73;7.03;;;2.80;82.80;;;;;;5095525;28;20044;-76
2021/01/10 05:20:35;;;;;;;13.60;7.68;;;2.70;82.80;;;;;;5095571;28;20069;-76
2021/01/10 05:23:01;;;;;;;12.48;7.90;;;2.70;82.80;;;;;;5097117;28;20032;-76
2021/01/10 05:25:28;;;;;;;12.15;7.35;;;2.70;82.80;;;;;;5095597;28;20038;-76
2021/01/10 05:27:56;;;;;;;15.18;7.82;;;2.70;82.90;;;;;;5096846;28;20055;-76
2021/01/10 05:30:27;;;;;;;14.52;7.25;;;2.70;82.90;;;;;;5097068;28;20487;-76
2021/01/10 05:33:08;;;;;;;13.98;7.22;;;2.70;82.90;;;;;;5095359;28;20024;-76
2021/01/10 05:35:54;;;;;;;13.43;7.45;;;2.70;82.90;;;;;;5095446;28;20020;-76
2021/01/10 05:38:31;;;;;;;11.45;7.07;;;2.70;82.90;;;;;;5095503;28;20122;-76
2021/01/10 05:40:58;;;;;;;13.13;7.68;;;2.70;82.90;;;;;;5095598;28;20032;-76
2021/01/10 05:43:25;;;;;;;12.68;7.60;;;2.70;82.90;;;;;;5096936;28;20165;-76
2021/01/10 05:45:51;;;;;;;14.75;7.53;;;2.70;82.90;;;;;;5095390;28;20034;-76
2021/01/10 05:48:19;;;;;;;13.20;7.60;;;2.70;82.80;;;;;;5095226;28;20119;-76
2021/01/10 05:50:49;;;;;;;15.35;7.95;;;2.80;82.80;;;;;;5096206;28;20032;-76
2021/01/10 05:53:22;;;;;;;10.48;6.72;;;2.90;82.60;;;;;;5096261;28;20024;-76
2021/01/10 05:56:03;;;;;;;12.40;7.30;;;2.90;82.50;;;;;;5096341;28;20024;-76
2021/01/10 05:58:31;;;;;;;10.90;7.40;;;2.90;82.40;;;;;;5094855;28;20017;-76
2021/01/10 06:00:58;;;;;;;12.90;7.55;;;3.00;82.40;;;;;;5096234;28;20024;-76
2021/01/10 06:03:30;;;;;;;11.95;7.25;;;3.00;82.20;;;;;;5094922;28;20464;-76
2021/01/10 06:06:00;;;;;;;12.55;7.30;;;3.00;82.80;;;;;;5094864;28;20111;-76
2021/01/10 06:08:32;;;;;;;13.57;7.25;;;2.90;82.30;;;;;;5094832;28;20047;-76
2021/01/10 06:11:26;;;;;;;11.50;6.70;;;2.90;82.40;;;;;;5096584;28;20103;-77
2021/01/10 06:14:01;;;;;;;14.77;7.25;;;2.90;82.30;;;;;;5094547;28;20020;-76
2021/01/10 06:16:31;;;;;;;13.80;7.10;;;3.00;82.30;;;;;;5094705;28;20024;-76
2021/01/10 06:19:02;;;;;;;14.93;6.72;;;3.00;82.30;;;;;;5096219;28;20030;-76
2021/01/10 06:21:30;;;;;;;13.98;7.57;;;3.00;82.20;;;;;;5095726;28;20024;-76
2021/01/10 06:24:04;;;;;;;12.95;7.13;;;3.10;82.30;;;;;;5094377;28;20044;-76
2021/01/10 06:26:32;;;;;;;13.60;6.63;;;3.10;82.30;;;;;;5094469;28;20128;-75
2021/01/10 06:29:08;;;;;;;13.88;7.40;;;3.10;82.20;;;;;;5094277;28;20127;-75
2021/01/10 06:31:35;;;;;;;10.60;6.55;;;3.20;82.20;;;;;;5095500;28;20028;-75
2021/01/10 06:34:05;;;;;;;12.43;6.95;;;3.20;82.20;;;;;;5095549;28;20020;-74
2021/01/10 06:36:34;;;;;;;12.45;7.38;;;3.20;82.20;;;;;;5094191;28;20482;-74
2021/01/10 06:39:11;;;;;;;12.50;6.97;;;3.20;82.10;;;;;;5095459;28;20383;-75
2021/01/10 06:41:49;;;;;;;11.30;6.47;;;3.30;82.10;;;;;;5095341;28;20057;-74
2021/01/10 06:44:20;;;;;;;14.93;7.07;;;3.30;82.10;;;;;;5095204;28;20484;-75
2021/01/10 06:46:54;;;;;;;11.82;7.05;;;3.30;82.70;;;;;;5095259;28;20016;-74
2021/01/10 06:49:21;;;;;;;11.95;7.38;;;3.30;82.10;;;;;;5093890;28;20016;-75
2021/01/10 06:51:49;;;;;;;13.65;7.10;;;3.30;82.10;;;;;;5095192;28;20127;-74
2021/01/10 06:54:15;;;;;;;9.82;6.72;;;3.30;82.10;;;;;;5093885;28;20031;-75
2021/01/10 06:56:51;;;;;;;9.27;6.07;;;3.30;82.10;;;;;;5093837;28;20020;-75
2021/01/10 06:59:18;;;;;;;11.18;6.97;;;3.40;82.20;;;;;;5094098;28;20024;-75
2021/01/10 07:01:52;;;;;;;11.48;6.75;;;3.40;82.10;;;;;;5095045;28;20025;-74
2021/01/10 07:04:23;;;;;;;12.82;7.18;;;3.40;82.10;;;;;;5093548;28;20077;-74
2021/01/10 07:06:53;;;;;;;14.70;7.25;;;3.40;82.10;;;;;;5095152;28;20062;-75
2021/01/10 07:09:20;;;;;;;15.40;6.90;;;3.40;82.10;;;;;;5076686;28;20134;-75
2021/01/10 07:11:46;;;;;;;10.82;6.57;;;3.50;82.20;;;;;;5093373;28;20028;-74
2021/01/10 07:14:12;;;;;;;11.32;6.95;;;3.40;82.20;;;;;;5094902;28;20027;-76
2021/01/10 07:16:39;;;;;;;12.35;6.65;;;3.40;82.20;;;;;;5093186;28;20480;-76
2021/01/10 07:19:06;;;;;;;14.55;7.30;;;3.40;82.20;;;;;;5094638;28;20467;-76
2021/01/10 07:21:43;;;;;;;11.52;6.80;;;3.40;82.30;;;;;;5093278;28;20020;-76
2021/01/10 07:24:21;;;;;;;10.10;6.85;;;3.40;82.40;;;;;;5094501;28;20123;-76
2021/01/10 07:26:51;;;;;;;11.40;6.20;;;3.40;82.40;;;;;;5093093;28;20071;-76
2021/01/10 07:29:29;;;;;;;9.93;6.45;;;3.50;82.40;;;;;;5094468;28;20086;-76
2021/01/10 07:31:59;;;;;;;13.88;7.35;;;3.50;82.40;;;;;;5093000;28;20044;-76
2021/01/10 07:34:26;;;;;;;10.48;7.20;;;3.50;82.30;;;;;;5092934;28;20036;-75
2021/01/10 07:36:57;;;;;;;11.30;6.45;;;3.50;82.90;;;;;;5094134;28;20375;-77
2021/01/10 07:39:28;;;;;;;12.07;7.15;;;3.50;82.20;;;;;;5094133;28;20085;-76
2021/01/10 07:42:14;;;;;;;11.52;7.57;;;3.50;82.20;;;;;;5092882;28;20059;-76
2021/01/10 07:44:47;;;;;;;11.38;6.88;;;3.50;82.20;;;;;;5093956;28;20028;-76
2021/01/10 07:47:12;;;;;;;9.82;6.40;;;3.50;82.20;;;;;;5092867;28;20533;-76
2021/01/10 07:49:52;;;;;;;11.93;7.20;;;3.50;82.10;;;;;;5093738;28;20023;-76
2021/01/10 07:52:41;;;;;;;13.90;7.40;;;3.40;82.10;;;;;;5092566;28;20024;-76
2021/01/10 07:55:21;;;;;;;13.20;8.02;;;3.40;82.20;;;;;;5092524;28;20024;-76
2021/01/10 07:57:52;;;;;;;11.52;7.53;;;3.40;82.30;;;;;;5092438;28;20027;-76
2021/01/10 08:00:18;;;;;;;13.10;7.68;;;3.40;82.40;;;;;;5092499;28;20024;-76
2021/01/10 08:02:47;;;;;;;13.48;7.00;;;3.30;82.20;;;;;;5092453;28;20027;-76
2021/01/10 08:05:35;;;;;;;13.18;7.13;;;3.30;82.40;;;;;;5093781;28;20066;-76
2021/01/10 08:08:15;;;;;;;15.15;7.60;;;3.30;82.40;;;;;;5061919;28;20036;-75
2021/01/10 08:10:51;;;;;;;14.50;7.05;;;3.40;82.40;;;;;;5092331;28;20024;-76
2021/01/10 08:13:29;;;;;;;11.20;6.82;;;3.30;82.30;;;;;;5092145;28;20383;-76
2021/01/10 08:15:58;;;;;;;13.15;7.65;;;3.30;82.30;;;;;;5092258;28;20024;-76
2021/01/10 08:18:27;;;;;;;10.80;6.45;;;3.30;82.40;;;;;;5092013;28;20440;-76
2021/01/10 08:20:56;;;;;;;11.00;6.55;;;3.40;82.40;;;;;;5092218;28;20490;-76
2021/01/10 08:23:23;;;;;;;11.93;6.50;;;3.40;82.50;;;;;;5093550;28;20098;-76
2021/01/10 08:25:59;;;;;;;17.20;7.65;;;3.50;82.40;;;;;;5092248;28;20047;-76
2021/01/10 08:28:25;;;;;;;11.80;6.90;;;3.50;82.30;;;;;;5091900;28;20027;-75
2021/01/10 08:30:52;;;;;;;13.45;6.80;;;3.50;82.30;;;;;;5091785;28;20032;-76
2021/01/10 08:33:21;;;;;;;13.35;7.57;;;3.60;82.20;;;;;;5091866;28;20024;-76
2021/01/10 08:35:48;;;;;;;13.50;6.85;;;3.60;82.10;;;;;;5093255;28;20024;-76
2021/01/10 08:38:14;;;;;;;11.52;6.53;;;3.60;82.20;;;;;;5111519;28;20027;-76
2021/01/10 08:40:40;;;;;;;10.80;6.57;;;3.60;82.20;;;;;;5110788;28;20038;-76
2021/01/10 08:43:06;;;;;;;10.82;7.72;;;3.70;82.20;;;;;;5111396;28;20571;-76
2021/01/10 08:45:33;;;;;;;11.88;7.25;;;3.60;82.00;;;;;;5111539;28;20024;-76
2021/01/10 08:48:04;;;;;;;11.40;7.35;;;3.60;82.00;;;;;;5111549;28;20217;-76
2021/01/10 08:50:42;;;;;;;10.70;6.82;;;3.60;82.10;;;;;;5111174;28;20553;-76
2021/01/10 08:53:08;;;;;;;11.20;7.00;;;3.60;82.20;;;;;;5094515;28;20036;-76
2021/01/10 08:55:39;;;;;;;11.10;7.10;;;3.70;82.20;;;;;;5111744;28;20020;-72
2021/01/10 08:58:09;;;;;;;11.88;7.05;;;3.60;82.10;;;;;;5111402;28;20482;-73
2021/01/10 09:00:39;;;;;;;12.27;7.30;;;3.60;82.10;;;;;;5110979;28;20024;-73
2021/01/10 09:03:19;;;;;;;10.60;6.70;;;3.70;82.20;;;;;;5111194;28;20039;-73
2021/01/10 09:05:47;;;;;;;13.07;7.57;;;3.70;82.20;;;;;;5111300;28;20078;-73
2021/01/10 09:08:39;;;;;;;11.13;7.00;;;3.70;82.20;;;;;;5109589;28;20233;-73
2021/01/10 09:11:14;;;;;;;11.93;6.43;;;3.80;82.20;;;;;;5091807;28;20418;-72
2021/01/10 09:13:42;;;;;;;11.82;7.53;;;3.80;82.10;;;;;;5091407;28;20022;-72
2021/01/10 09:16:14;;;;;;;11.82;6.95;;;3.90;82.00;;;;;;5093455;28;20020;-73
2021/01/10 09:18:42;;;;;;;12.18;7.15;;;3.90;82.60;;;;;;5091294;28;20132;-72
2021/01/10 09:21:15;;;;;;;11.63;6.82;;;3.90;81.90;;;;;;5091538;28;20036;-73
2021/01/10 09:23:51;;;;;;;10.75;6.90;;;4.00;81.90;;;;;;5092820;28;20028;-72
2021/01/10 09:26:34;;;;;;;8.88;6.85;;;4.00;81.80;;;;;;5091493;28;20124;-73
2021/01/10 09:29:02;;;;;;;11.88;7.25;;;4.00;81.70;;;;;;5092815;28;20039;-73
2021/01/10 09:31:41;;;;;;;13.25;6.75;;;4.00;81.70;;;;;;5091215;28;20206;-74
2021/01/10 09:34:07;;;;;;;12.30;7.60;;;4.00;81.80;;;;;;5092748;28;20395;-72
2021/01/10 09:36:33;;;;;;;11.57;7.22;;;4.10;81.80;;;;;;5091646;28;20020;-72
2021/01/10 09:38:59;;;;;;;11.52;7.53;;;4.10;81.70;;;;;;5092708;28;20472;-73
2021/01/10 09:41:24;;;;;;;9.68;6.93;;;4.20;81.70;;;;;;5091443;28;20085;-72
2021/01/10 09:43:53;;;;;;;10.77;6.97;;;4.10;81.60;;;;;;5091230;28;20494;-73
2021/01/10 09:49:44;;;;;;;13.85;8.13;;;4.20;81.50;;;;;;5093041;28;20367;-73
2021/01/10 09:52:12;;;;;;;12.20;7.40;;;4.20;81.40;;;;;;5093726;28;20483;-74
2021/01/10 09:54:38;;;;;;;11.60;7.75;;;4.30;81.50;;;;;;5096529;28;20024;-74
2021/01/10 09:57:24;;;;;;;11.55;7.78;;;4.30;81.50;;;;;;5096389;28;20539;-74
2021/01/10 09:59:56;;;;;;;14.73;8.18;;;4.40;81.40;;;;;;5094844;28;20089;-74
2021/01/10 10:02:25;;;;;;;13.60;8.02;;;4.40;81.30;;;;;;5094979;28;20035;-74
2021/01/10 10:04:53;;;;;;;12.80;8.98;;;4.40;81.30;;;;;;5096128;28;20020;-74
2021/01/10 10:07:41;;;;;;;14.18;10.23;;;4.40;81.40;;;;;;5094704;28;20081;-74
2021/01/10 10:10:28;;;;;;;15.07;10.15;;;4.40;81.40;;;;;;5094628;28;20028;-74
2021/01/10 10:13:09;;;;;;;13.98;9.80;;;4.40;81.40;;;;;;5095441;28;20124;-74
2021/01/10 10:15:43;;;;;;;13.00;9.10;;;4.40;82.00;;;;;;5094487;28;20541;-73
2021/01/10 10:18:16;;;;;;;13.45;9.00;;;4.40;81.30;;;;;;5095914;28;20044;-74
2021/01/10 10:20:41;;;;;;;15.17;9.00;;;4.50;81.40;;;;;;5096264;28;20107;-76
2021/01/10 10:23:15;;;;;;;10.70;8.23;;;4.40;81.30;;;;;;5095906;28;20066;-76
2021/01/10 10:25:46;;;;;;;15.52;8.73;;;4.50;81.40;;;;;;5095838;28;20075;-76
2021/01/10 10:28:13;;;;;;;12.38;8.23;;;4.50;81.40;;;;;;5094592;28;20115;-76
2021/01/10 10:30:39;;;;;;;12.05;7.68;;;4.60;81.30;;;;;;5094283;28;20042;-77
2021/01/10 10:33:05;;;;;;;15.40;8.95;;;4.60;81.20;;;;;;5094531;28;20547;-77
2021/01/10 10:35:32;;;;;;;13.88;8.43;;;4.70;81.20;;;;;;5094460;28;20111;-76
2021/01/10 10:37:58;;;;;;;13.95;9.55;;;4.80;81.10;;;;;;5094427;28;20447;-76
2021/01/10 10:40:25;;;;;;;11.07;7.53;;;4.80;81.00;;;;;;5094790;28;20096;-76
2021/01/10 10:42:51;;;;;;;12.52;7.30;;;4.80;81.00;;;;;;5096154;28;20084;-77
2021/01/10 10:45:17;;;;;;;10.50;7.47;;;4.80;81.00;;;;;;5094974;28;20036;-76
2021/01/10 10:47:43;;;;;;;10.43;7.57;;;4.80;81.00;;;;;;5096031;28;20081;-76
2021/01/10 10:50:10;;;;;;;11.13;7.50;;;4.90;81.00;;;;;;5095956;28;20502;-76
2021/01/10 10:52:36;;;;;;;12.15;8.15;;;4.90;81.00;;;;;;5097720;28;20463;-80
2021/01/10 10:55:02;;;;;;;13.85;8.70;;;4.90;81.00;;;;;;5094757;28;20028;-78
2021/01/10 10:57:28;;;;;;;9.30;7.68;;;5.00;80.90;;;;;;5095801;28;20059;-78
2021/01/10 10:59:54;;;;;;;14.57;8.10;;;5.00;80.80;;;;;;5097443;28;20391;-79
2021/01/10 11:02:20;;;;;;;12.65;7.38;;;5.00;80.80;;;;;;5098345;28;20036;-79
2021/01/10 11:04:45;;;;;;;9.70;7.18;;;5.00;80.80;;;;;;5096897;28;20035;-77
2021/01/10 11:07:13;;;;;;;12.55;8.20;;;5.00;80.80;;;;;;5098364;28;20503;-78
2021/01/10 11:09:39;;;;;;;12.82;8.00;;;5.00;80.80;;;;;;5096327;28;20027;-79
2021/01/10 11:12:08;;;;;;;15.10;8.90;;;4.90;80.70;;;;;;5097260;28;20495;-76
2021/01/10 11:14:34;;;;;;;15.13;10.82;;;4.90;80.90;;;;;;5095392;28;20028;-77
2021/01/10 11:17:04;;;;;;;18.38;11.30;;;4.80;81.00;;;;;;5093763;28;20043;-78
2021/01/10 11:19:29;;;;;;;16.02;9.90;;;4.90;81.10;;;;;;5094420;28;20030;-76
2021/01/10 11:21:55;;;;;;;15.05;10.02;;;4.90;81.00;;;;;;5093711;28;20118;-77
2021/01/10 11:24:20;;;;;;;14.88;10.30;;;4.90;81.00;;;;;;5095186;28;20119;-75
2021/01/10 11:26:46;;;;;;;12.70;9.90;;;5.00;81.00;;;;;;5096451;28;20109;-76
2021/01/10 11:29:13;;;;;;;15.88;9.65;;;5.20;81.00;;;;;;5094064;28;20483;-77
2021/01/10 11:31:41;;;;;;;14.02;9.27;;;5.30;80.80;;;;;;5095090;28;20469;-75
2021/01/10 11:34:10;;;;;;;13.57;9.57;;;5.30;80.40;;;;;;5093717;28;20028;-75
2021/01/10 11:36:39;;;;;;;14.18;10.00;;;5.30;80.40;;;;;;5093460;28;20020;-77
2021/01/10 11:39:05;;;;;;;16.75;11.52;;;5.30;80.40;;;;;;5094619;28;20028;-77
2021/01/10 11:41:31;;;;;;;13.05;8.80;;;5.30;80.50;;;;;;5093225;28;20340;-77
2021/01/10 11:43:57;;;;;;;16.58;9.32;;;5.30;80.50;;;;;;5092866;28;20510;-77
2021/01/10 11:46:23;;;;;;;13.75;9.88;;;5.30;80.50;;;;;;5094384;28;20028;-78
2021/01/10 11:48:49;;;;;;;13.95;9.32;;;5.40;80.50;;;;;;5093046;28;20510;-78
2021/01/10 11:51:16;;;;;;;13.95;8.73;;;5.50;80.50;;;;;;5093473;28;20467;-79
2021/01/10 11:53:43;;;;;;;12.77;9.10;;;5.50;80.40;;;;;;5093255;28;20459;-78
2021/01/10 11:56:09;;;;;;;19.27;14.10;;;5.60;80.50;;;;;;5093413;28;20111;-79
2021/01/10 11:58:39;;;;;;;14.23;10.70;;;5.60;80.40;;;;;;5093129;28;20365;-79
2021/01/10 12:01:05;;;;;;;11.98;8.90;;;5.70;80.30;;;;;;5093633;28;20452;-79
2021/01/10 12:03:32;;;;;;;16.88;10.02;;;5.80;80.20;;;;;;5094422;28;20047;-78
2021/01/10 12:05:57;;;;;;;14.40;9.35;;;5.80;80.20;;;;;;5092951;28;20042;-78
2021/01/10 12:08:23;;;;;;;11.45;8.40;;;5.90;80.10;;;;;;5092891;28;20118;-78
2021/01/10 12:10:50;;;;;;;14.43;8.80;;;6.00;79.80;;;;;;5093820;28;20541;-78
2021/01/10 12:13:16;;;;;;;11.27;7.75;;;6.00;79.40;;;;;;5094039;28;20031;-78
2021/01/10 12:19:05;;;;;;;10.48;8.02;;;6.00;79.30;;;;;;5081645;28;20047;-78
2021/01/10 12:21:31;;;;;;;10.55;7.57;;;5.90;79.40;;;;;;5092389;28;20429;-79
2021/01/10 12:23:56;;;;;;;10.93;8.15;;;5.90;79.60;;;;;;5092716;28;20024;-79
2021/01/10 12:26:22;;;;;;;9.82;6.60;;;5.90;79.60;;;;;;5092233;28;20020;-78
2021/01/10 12:28:48;;;;;;;9.18;7.43;;;5.90;79.50;;;;;;5092012;28;20399;-79
2021/01/10 12:31:14;;;;;;;11.27;6.90;;;5.90;79.60;;;;;;5093653;28;20035;-79
2021/01/10 12:33:40;;;;;;;11.07;7.10;;;5.80;79.40;;;;;;5092392;28;20451;-79
2021/01/10 12:36:08;;;;;;;10.88;6.68;;;5.80;79.60;;;;;;5092197;28;20028;-78
2021/01/10 12:38:38;;;;;;;8.80;6.32;;;5.90;79.70;;;;;;5093743;28;20024;-79
2021/01/10 12:41:04;;;;;;;11.93;6.15;;;5.90;79.60;;;;;;5093412;28;20053;-79
2021/01/10 12:43:30;;;;;;;9.45;5.90;;;5.90;79.60;;;;;;5092270;28;20540;-79
2021/01/10 12:45:56;;;;;;;7.22;5.25;;;5.90;79.50;;;;;;5092514;28;20027;-79
2021/01/10 12:48:22;;;;;;;6.63;5.10;;;6.00;79.30;;;;;;5093959;28;20032;-79
2021/01/10 12:50:48;;;;;;;8.18;5.43;;;6.10;79.20;;;;;;5092313;28;20028;-79
2021/01/10 12:53:17;;;;;;;7.75;5.60;;;6.10;79.10;;;;;;5092198;28;20024;-80
2021/01/10 12:55:43;;;;;;;8.00;5.28;;;6.20;78.80;;;;;;5092323;28;20017;-80
2021/01/10 12:58:12;;;;;;;6.82;5.10;;;6.20;78.50;;;;;;5092903;28;20467;-80
2021/01/10 13:00:38;;;;;;;7.65;5.22;;;6.20;78.60;;;;;;5092264;28;20024;-79
2021/01/10 13:03:04;;;;;;;9.10;4.70;;;6.20;78.60;;;;;;5093299;28;20027;-78